createdAt,value
2023-04-04T09:59:52.219Z,4.46
2023-04-04T10:02:19.485Z,4.63
2023-04-04T10:04:48.900Z,4.79
2023-04-04T10:07:18.725Z,4.98
2023-04-04T10:09:48.364Z,5.17
2023-04-04T10:12:17.337Z,5.35
2023-04-04T10:14:44.820Z,5.55
2023-04-04T10:17:13.522Z,5.74
2023-04-04T10:19:41.652Z,5.86
2023-04-04T10:22:09.941Z,6.11
2023-04-04T10:24:36.858Z,6.29
2023-04-04T10:27:04.036Z,6.46
2023-04-04T10:29:32.484Z,6.65
2023-04-04T10:32:06.693Z,6.83
2023-04-04T10:34:40.979Z,7.00
2023-04-04T10:37:27.149Z,7.07
2023-04-04T10:40:00.618Z,7.41
2023-04-04T10:42:33.397Z,7.50
2023-04-04T10:45:17.013Z,7.75
2023-04-04T10:47:48.331Z,7.54
2023-04-04T10:50:15.841Z,8.03
2023-04-04T10:52:44.659Z,8.25
2023-04-04T10:55:13.665Z,8.41
2023-04-04T10:57:47.648Z,8.56
2023-04-04T11:00:19.443Z,8.72
2023-04-04T11:02:58.122Z,8.85
2023-04-04T11:05:37.509Z,9.01
2023-04-04T11:08:09.813Z,9.15
2023-04-04T11:10:38.953Z,9.29
2023-04-04T11:13:14.144Z,9.41
2023-04-04T11:15:57.938Z,9.52
2023-04-04T11:18:40.528Z,9.64
2023-04-04T11:21:24.149Z,9.64
2023-04-04T11:24:01.064Z,9.84
2023-04-04T11:26:28.182Z,9.95
2023-04-04T11:29:04.369Z,10.04
2023-04-04T11:31:38.056Z,10.11
2023-04-04T11:34:10.109Z,10.09
2023-04-04T11:36:37.221Z,10.27
2023-04-04T11:39:05.939Z,10.33
2023-04-04T11:42:03.933Z,10.38
2023-04-04T11:44:32.465Z,10.45
2023-04-04T11:47:05.083Z,10.50
2023-04-04T11:49:37.460Z,10.59
2023-04-04T11:52:12.832Z,10.66
2023-04-04T11:54:41.689Z,10.73
2023-04-04T11:57:12.485Z,10.83
2023-04-04T11:59:44.601Z,10.86
2023-04-04T12:02:13.151Z,10.96
2023-04-04T12:04:43.729Z,11.02
2023-04-04T12:07:15.546Z,11.07
2023-04-04T12:09:45.706Z,11.07
2023-04-04T12:12:16.563Z,11.17
2023-04-04T12:14:43.963Z,11.07
2023-04-04T12:17:11.397Z,11.14
2023-04-04T12:19:40.261Z,11.30
2023-04-04T12:22:08.521Z,11.33
2023-04-04T12:24:38.519Z,11.37
2023-04-04T12:27:06.584Z,11.39
2023-04-04T12:29:36.379Z,11.47
2023-04-04T12:32:04.851Z,11.51
2023-04-04T12:34:42.655Z,11.55
2023-04-04T12:37:16.220Z,11.61
2023-04-04T12:39:51.236Z,11.65
2023-04-04T12:42:25.161Z,11.65
2023-04-04T12:44:53.979Z,11.71
2023-04-04T12:47:22.476Z,11.73
2023-04-04T12:49:52.717Z,11.75
2023-04-04T12:52:32.996Z,11.80
2023-04-04T12:55:09.430Z,11.86
2023-04-04T12:57:39.545Z,11.80
2023-04-04T13:00:09.058Z,11.66
2023-04-04T13:02:37.881Z,11.76
2023-04-04T13:05:07.556Z,11.84
2023-04-04T13:07:43.188Z,11.78
2023-04-04T13:10:15.054Z,11.74
2023-04-04T13:13:02.516Z,11.70
2023-04-04T13:15:50.669Z,11.66
2023-04-04T13:18:22.782Z,11.65
2023-04-04T13:20:51.300Z,11.66
2023-04-04T13:23:18.610Z,11.66
2023-04-04T13:25:45.625Z,11.56
2023-04-04T13:28:13.006Z,11.64
2023-04-04T13:30:43.705Z,11.60
2023-04-04T13:33:11.256Z,11.54
2023-04-04T13:35:39.158Z,11.50
2023-04-04T13:38:06.979Z,11.45
2023-04-04T13:40:33.911Z,11.42
2023-04-04T13:43:00.949Z,11.37
2023-04-04T13:45:27.913Z,11.33
2023-04-04T13:47:54.953Z,11.27
2023-04-04T13:50:22.957Z,11.21
2023-04-04T13:52:54.028Z,11.15
2023-04-04T13:55:21.922Z,11.02
2023-04-04T13:57:50.713Z,11.11
2023-04-04T14:00:18.143Z,11.10
2023-04-04T14:02:45.077Z,10.92
2023-04-04T14:05:32.605Z,11.01
2023-04-04T14:08:19.488Z,10.96
2023-04-04T14:11:06.530Z,10.94
2023-04-04T14:13:53.507Z,10.84
2023-04-04T14:16:40.454Z,10.85
2023-04-04T14:19:27.318Z,10.79
2023-04-04T14:22:14.471Z,10.73
2023-04-04T14:25:01.345Z,10.67
2023-04-04T14:27:48.554Z,10.64
2023-04-04T14:30:36.064Z,10.33
2023-04-04T14:33:23.278Z,10.47
2023-04-04T14:36:10.135Z,10.46
2023-04-04T14:38:57.277Z,10.42
2023-04-04T14:41:44.176Z,10.08
2023-04-04T14:44:32.465Z,10.37
2023-04-04T14:47:20.375Z,10.35
2023-04-04T14:50:07.302Z,10.31
2023-04-04T14:52:54.183Z,10.27
2023-04-04T14:55:41.639Z,10.08
2023-04-04T14:58:28.763Z,10.23
2023-04-04T15:01:15.758Z,10.18
2023-04-04T15:04:02.599Z,10.11
2023-04-04T15:06:49.733Z,10.07
2023-04-04T15:09:37.492Z,10.00
2023-04-04T15:12:25.920Z,9.96
2023-04-04T15:15:12.740Z,9.88
2023-04-04T15:18:00.625Z,9.83
2023-04-04T15:20:47.786Z,9.78
2023-04-04T15:23:34.791Z,9.73
2023-04-04T15:26:21.624Z,9.68
2023-04-04T15:29:08.536Z,9.36
2023-04-04T15:31:55.434Z,9.65
2023-04-04T15:34:42.359Z,9.56
2023-04-04T15:37:29.305Z,9.56
2023-04-04T15:40:16.215Z,9.53
2023-04-04T15:43:03.220Z,9.50
2023-04-04T15:45:50.202Z,9.49
2023-04-04T15:48:37.025Z,9.27
2023-04-04T15:51:24.577Z,9.45
2023-04-04T15:54:14.626Z,9.40
2023-04-04T15:57:01.677Z,9.38
2023-04-04T15:59:48.558Z,9.25
2023-04-04T16:02:35.977Z,9.32
2023-04-04T16:05:23.087Z,9.30
2023-04-04T16:08:09.934Z,9.21
2023-04-04T16:10:56.819Z,9.17
2023-04-04T16:13:44.149Z,9.22
2023-04-04T16:16:31.010Z,8.83
2023-04-04T16:19:20.881Z,9.16
2023-04-04T16:22:07.741Z,9.06
2023-04-04T16:24:54.643Z,9.00
2023-04-04T16:27:41.450Z,8.98
2023-04-04T16:30:29.073Z,8.53
2023-04-04T16:33:15.896Z,8.87
2023-04-04T16:36:02.753Z,8.80
2023-04-04T16:38:49.684Z,8.75
2023-04-04T16:41:36.550Z,8.70
2023-04-04T16:44:23.448Z,8.60
2023-04-04T16:47:11.102Z,8.58
2023-04-04T16:49:59.255Z,8.52
2023-04-04T16:52:46.186Z,8.44
2023-04-04T16:55:33.028Z,8.32
2023-04-04T16:58:19.914Z,8.33
2023-04-04T17:01:06.895Z,8.25
2023-04-04T17:03:53.890Z,8.19
2023-04-04T17:06:40.867Z,8.19
2023-04-04T17:09:27.903Z,8.01
2023-04-04T17:12:16.211Z,8.06
2023-04-04T17:15:03.502Z,8.01
2023-04-04T17:17:50.762Z,7.65
2023-04-04T17:20:38.282Z,7.90
2023-04-04T17:23:25.388Z,7.82
2023-04-04T17:26:12.330Z,7.63
2023-04-04T17:28:59.133Z,7.74
2023-04-04T17:31:46.080Z,7.67
2023-04-04T17:34:32.930Z,7.59
2023-04-04T17:37:20.050Z,7.54
2023-04-04T17:40:06.988Z,7.48
2023-04-04T17:42:54.135Z,7.37
2023-04-04T17:45:42.640Z,7.34
2023-04-04T17:48:29.826Z,6.91
2023-04-04T17:51:16.731Z,7.18
2023-04-04T17:54:03.984Z,6.92
2023-04-04T17:56:50.978Z,7.02
2023-04-04T17:59:38.332Z,6.93
2023-04-04T18:02:25.603Z,6.85
2023-04-04T18:05:12.799Z,6.30
2023-04-04T18:07:59.894Z,6.69
2023-04-04T18:10:47.178Z,6.60
2023-04-04T18:13:34.268Z,6.53
2023-04-04T18:16:21.453Z,6.41
2023-04-04T18:19:08.348Z,6.35
2023-04-04T18:21:55.639Z,6.26
2023-04-04T18:24:42.513Z,6.17
2023-04-04T18:27:29.838Z,6.07
2023-04-04T18:30:16.798Z,5.98
2023-04-04T18:33:04.125Z,5.86
2023-04-04T18:35:53.110Z,5.70
2023-04-04T18:38:40.184Z,5.72
2023-04-04T18:41:27.106Z,5.63
2023-04-04T18:44:14.104Z,5.39
2023-04-04T18:47:01.072Z,5.46
2023-04-04T18:49:51.151Z,5.30
2023-04-04T18:52:38.605Z,5.29
2023-04-04T18:55:25.946Z,5.21
2023-04-04T18:58:12.751Z,5.12
2023-04-04T19:01:00.174Z,5.02
2023-04-04T19:03:47.180Z,4.97
2023-04-04T19:06:34.713Z,4.89
2023-04-04T19:09:24.022Z,4.82
2023-04-04T19:12:13.013Z,4.53
2023-04-04T19:14:59.948Z,4.67
2023-04-04T19:17:47.440Z,4.58
2023-04-04T19:20:34.493Z,4.43
2023-04-04T19:23:21.643Z,4.34
2023-04-04T19:26:08.589Z,4.36
2023-04-04T19:28:55.657Z,4.29
2023-04-04T19:31:44.474Z,4.22
2023-04-04T19:34:31.322Z,4.15
2023-04-04T19:37:18.331Z,4.07
2023-04-04T19:40:05.620Z,4.01
2023-04-04T19:42:52.525Z,3.79
2023-04-04T19:46:07.256Z,3.87
2023-04-04T19:49:00.146Z,3.78
2023-04-04T19:51:47.382Z,3.73
2023-04-04T19:54:34.304Z,3.66
2023-04-04T19:57:26.665Z,3.60
2023-04-04T20:00:17.740Z,3.53
2023-04-04T20:03:09.362Z,3.47
2023-04-04T20:05:56.212Z,3.40
2023-04-04T20:08:44.039Z,3.23
2023-04-04T20:11:32.856Z,3.14
2023-04-04T20:14:27.966Z,3.21
2023-04-04T20:17:14.954Z,3.17
2023-04-04T20:20:01.823Z,3.10
2023-04-04T20:22:48.657Z,3.05
2023-04-04T20:26:04.355Z,2.97
2023-04-04T20:28:51.262Z,2.93
2023-04-04T20:31:38.522Z,2.86
2023-04-04T20:34:26.878Z,2.83
2023-04-04T20:37:13.828Z,2.77
2023-04-04T20:40:16.504Z,2.72
2023-04-04T20:43:04.046Z,2.44
2023-04-04T20:46:03.350Z,2.56
2023-04-04T20:48:58.202Z,2.53
2023-04-04T20:51:52.803Z,2.23
2023-04-04T20:54:39.785Z,2.41
2023-04-04T20:57:26.700Z,2.33
2023-04-04T21:00:13.591Z,2.33
2023-04-04T21:03:00.671Z,2.27
2023-04-04T21:05:52.823Z,2.23
2023-04-04T21:08:39.747Z,2.15
2023-04-04T21:11:26.716Z,2.12
2023-04-04T21:14:14.991Z,1.83
2023-04-04T21:17:02.187Z,2.02
2023-04-04T21:19:49.203Z,1.82
2023-04-04T21:22:36.185Z,1.92
2023-04-04T21:25:38.474Z,1.83
2023-04-04T21:28:25.876Z,1.61
2023-04-04T21:31:12.681Z,1.74
2023-04-04T21:34:03.324Z,1.68
2023-04-04T21:36:50.262Z,1.51
2023-04-04T21:39:45.483Z,1.41
2023-04-04T21:42:32.350Z,1.19
2023-04-04T21:45:19.234Z,1.53
2023-04-04T21:48:06.232Z,1.48
2023-04-04T21:50:53.033Z,1.39
2023-04-04T21:53:41.971Z,1.40
2023-04-04T21:56:29.001Z,1.06
2023-04-04T21:59:15.941Z,1.32
2023-04-04T22:02:02.788Z,1.30
2023-04-04T22:04:49.949Z,1.16
2023-04-04T22:07:36.911Z,1.21
2023-04-04T22:10:26.637Z,1.17
2023-04-04T22:13:13.845Z,1.11
2023-04-04T22:16:01.383Z,1.09
2023-04-04T22:18:52.164Z,1.05
2023-04-04T22:21:45.877Z,1.03
2023-04-04T22:24:32.853Z,0.97
2023-04-04T22:27:20.050Z,0.94
2023-04-04T22:30:07.074Z,0.77
2023-04-04T22:32:54.007Z,0.86
2023-04-04T22:35:41.259Z,0.82
2023-04-04T22:38:28.173Z,0.79
2023-04-04T22:41:17.035Z,0.75
2023-04-04T22:44:03.876Z,0.56
2023-04-04T22:46:50.738Z,0.58
2023-04-04T22:49:37.873Z,0.66
2023-04-04T22:52:25.020Z,0.46
2023-04-04T22:55:12.908Z,0.57
2023-04-04T22:58:00.005Z,0.56
2023-04-04T23:00:46.912Z,0.35
2023-04-04T23:03:34.099Z,0.43
2023-04-04T23:06:21.144Z,0.29
2023-04-04T23:09:08.260Z,0.38
2023-04-04T23:11:55.117Z,0.40
2023-04-04T23:14:42.239Z,0.37
2023-04-04T23:17:29.864Z,0.32
2023-04-04T23:20:19.002Z,-0.01
2023-04-04T23:23:05.910Z,0.26
2023-04-04T23:25:52.826Z,0.17
2023-04-04T23:28:40.374Z,0.17
2023-04-04T23:31:27.600Z,0.14
2023-04-04T23:34:17.042Z,0.04
2023-04-04T23:37:04.420Z,-0.02
2023-04-04T23:39:51.467Z,0.03
2023-04-04T23:42:38.388Z,-0.09
2023-04-04T23:45:25.658Z,-0.09
2023-04-04T23:48:12.710Z,-0.07
2023-04-04T23:50:59.639Z,-0.12
2023-04-04T23:53:46.657Z,-0.15
2023-04-04T23:56:33.689Z,-0.20
2023-04-04T23:59:20.623Z,-0.45
